Main page
METAR-TAF:

METAR-TAF

Airports :

North Central State Airport

Pawtucket, Rhode Island, United States

latitude: 41-55N, longitude: 071-30W, elevation: 440 ft

Current weather observation

The report was made 19 minutes ago, at 17:27 UTC
Wind 25 mph from the West with gusts up to 33 mph
Temperature 45°F
Humidity 70%
Pressure 29.29 in. Hg
Visibility: 10 miles
Scattered clouds at a height of 2700 ft
Scattered clouds at a height of 3100 ft

METAR: KSFZ 271727Z AUTO 28022G29KT 10SM SCT027 SCT031 07/02 A2929 RMK AO2 PK WND 27029/1726 RAE19 P0000

Time: 12:46 (17:46 UTC)


TAF: missing

Weather observations and forecasts of more than 4000 airports (METAR and TAF reports).

The available stations are represented by yellow and red dots on the map.

Hover mouse over dot to see the name of the station.

Then click to see weather observations and forecasts.

To change the map : click on the green buttons with a black cross to zoom in, on the green button with a dash to zoom out, or on the green arrows for adjacent maps.


METAR-TAF: